sensor_id;sensor_type;location;lat;lon;timestamp;P1;durP1;ratioP1;P2;durP2;ratioP2
35084;SDS011;21267;51.032;6.998;2023-12-14T00:00:19;32.03;;;19.80;;
35084;SDS011;21267;51.032;6.998;2023-12-14T00:02:46;33.42;;;20.55;;
35084;SDS011;21267;51.032;6.998;2023-12-14T00:05:12;33.60;;;20.00;;
35084;SDS011;21267;51.032;6.998;2023-12-14T00:07:39;33.38;;;21.17;;
35084;SDS011;21267;51.032;6.998;2023-12-14T00:10:07;38.97;;;22.57;;
35084;SDS011;21267;51.032;6.998;2023-12-14T00:12:34;41.70;;;22.85;;
35084;SDS011;21267;51.032;6.998;2023-12-14T00:15:01;40.72;;;22.33;;
35084;SDS011;21267;51.032;6.998;2023-12-14T00:17:29;37.15;;;22.58;;
35084;SDS011;21267;51.032;6.998;2023-12-14T00:19:56;39.72;;;23.75;;
35084;SDS011;21267;51.032;6.998;2023-12-14T00:22:23;41.25;;;24.02;;
35084;SDS011;21267;51.032;6.998;2023-12-14T00:24:51;39.58;;;24.25;;
35084;SDS011;21267;51.032;6.998;2023-12-14T00:27:18;32.85;;;18.02;;
35084;SDS011;21267;51.032;6.998;2023-12-14T00:29:44;40.30;;;23.60;;
35084;SDS011;21267;51.032;6.998;2023-12-14T00:32:11;43.50;;;25.27;;
35084;SDS011;21267;51.032;6.998;2023-12-14T00:34:38;46.50;;;25.27;;
35084;SDS011;21267;51.032;6.998;2023-12-14T00:37:08;45.63;;;26.52;;
35084;SDS011;21267;51.032;6.998;2023-12-14T00:39:35;42.63;;;24.00;;
35084;SDS011;21267;51.032;6.998;2023-12-14T00:42:03;45.90;;;27.00;;
35084;SDS011;21267;51.032;6.998;2023-12-14T00:44:30;48.30;;;26.23;;
35084;SDS011;21267;51.032;6.998;2023-12-14T00:46:56;47.05;;;26.00;;
35084;SDS011;21267;51.032;6.998;2023-12-14T00:49:25;45.40;;;26.13;;
35084;SDS011;21267;51.032;6.998;2023-12-14T00:51:54;49.60;;;27.35;;
35084;SDS011;21267;51.032;6.998;2023-12-14T00:54:21;48.40;;;27.77;;
35084;SDS011;21267;51.032;6.998;2023-12-14T00:56:48;48.67;;;28.13;;
35084;SDS011;21267;51.032;6.998;2023-12-14T01:01:43;51.17;;;30.02;;
35084;SDS011;21267;51.032;6.998;2023-12-14T01:06:55;47.65;;;28.63;;
35084;SDS011;21267;51.032;6.998;2023-12-14T01:09:22;55.03;;;30.48;;
35084;SDS011;21267;51.032;6.998;2023-12-14T01:12:02;58.85;;;30.83;;
35084;SDS011;21267;51.032;6.998;2023-12-14T01:14:30;59.55;;;30.67;;
35084;SDS011;21267;51.032;6.998;2023-12-14T01:17:11;60.50;;;32.42;;
35084;SDS011;21267;51.032;6.998;2023-12-14T01:22:21;62.83;;;32.70;;
35084;SDS011;21267;51.032;6.998;2023-12-14T01:24:47;67.03;;;34.33;;
35084;SDS011;21267;51.032;6.998;2023-12-14T01:27:14;67.47;;;33.97;;
35084;SDS011;21267;51.032;6.998;2023-12-14T01:29:55;66.65;;;35.45;;
35084;SDS011;21267;51.032;6.998;2023-12-14T01:32:25;67.18;;;34.38;;
35084;SDS011;21267;51.032;6.998;2023-12-14T01:35:01;70.88;;;34.47;;
35084;SDS011;21267;51.032;6.998;2023-12-14T01:37:29;70.57;;;36.80;;
35084;SDS011;21267;51.032;6.998;2023-12-14T01:40:01;77.35;;;36.22;;
35084;SDS011;21267;51.032;6.998;2023-12-14T01:42:30;76.50;;;36.55;;
35084;SDS011;21267;51.032;6.998;2023-12-14T01:44:58;71.38;;;36.05;;
35084;SDS011;21267;51.032;6.998;2023-12-14T01:47:25;78.25;;;35.30;;
35084;SDS011;21267;51.032;6.998;2023-12-14T01:49:52;73.30;;;37.05;;
35084;SDS011;21267;51.032;6.998;2023-12-14T01:52:18;76.78;;;37.53;;
35084;SDS011;21267;51.032;6.998;2023-12-14T01:55:00;70.35;;;35.80;;
35084;SDS011;21267;51.032;6.998;2023-12-14T01:57:34;70.75;;;36.50;;
35084;SDS011;21267;51.032;6.998;2023-12-14T02:00:19;78.88;;;36.50;;
35084;SDS011;21267;51.032;6.998;2023-12-14T02:02:58;85.25;;;37.65;;
35084;SDS011;21267;51.032;6.998;2023-12-14T02:05:26;78.82;;;36.55;;
35084;SDS011;21267;51.032;6.998;2023-12-14T02:07:52;74.53;;;36.50;;
35084;SDS011;21267;51.032;6.998;2023-12-14T02:10:21;78.20;;;36.40;;
35084;SDS011;21267;51.032;6.998;2023-12-14T02:12:48;75.00;;;34.45;;
35084;SDS011;21267;51.032;6.998;2023-12-14T02:15:15;81.65;;;37.50;;
35084;SDS011;21267;51.032;6.998;2023-12-14T02:17:44;81.57;;;37.58;;
35084;SDS011;21267;51.032;6.998;2023-12-14T02:20:12;77.43;;;36.60;;
35084;SDS011;21267;51.032;6.998;2023-12-14T02:22:48;78.15;;;36.00;;
35084;SDS011;21267;51.032;6.998;2023-12-14T02:25:18;89.57;;;39.25;;
35084;SDS011;21267;51.032;6.998;2023-12-14T02:27:46;72.72;;;34.17;;
35084;SDS011;21267;51.032;6.998;2023-12-14T02:30:14;89.00;;;39.22;;
35084;SDS011;21267;51.032;6.998;2023-12-14T02:32:44;82.65;;;36.47;;
35084;SDS011;21267;51.032;6.998;2023-12-14T02:35:11;78.78;;;35.38;;
35084;SDS011;21267;51.032;6.998;2023-12-14T02:40:10;80.22;;;34.58;;
35084;SDS011;21267;51.032;6.998;2023-12-14T02:42:39;78.30;;;35.75;;
35084;SDS011;21267;51.032;6.998;2023-12-14T02:45:11;80.43;;;35.05;;
35084;SDS011;21267;51.032;6.998;2023-12-14T02:47:38;72.53;;;34.60;;
35084;SDS011;21267;51.032;6.998;2023-12-14T02:50:06;69.57;;;30.98;;
35084;SDS011;21267;51.032;6.998;2023-12-14T02:52:33;46.87;;;23.33;;
35084;SDS011;21267;51.032;6.998;2023-12-14T02:55:02;66.32;;;31.50;;
35084;SDS011;21267;51.032;6.998;2023-12-14T02:57:31;63.85;;;30.30;;
35084;SDS011;21267;51.032;6.998;2023-12-14T03:00:02;64.70;;;31.73;;
35084;SDS011;21267;51.032;6.998;2023-12-14T03:02:34;63.83;;;32.00;;
35084;SDS011;21267;51.032;6.998;2023-12-14T03:05:02;61.63;;;31.60;;
35084;SDS011;21267;51.032;6.998;2023-12-14T03:07:43;60.05;;;32.15;;
35084;SDS011;21267;51.032;6.998;2023-12-14T03:10:10;59.90;;;31.55;;
35084;SDS011;21267;51.032;6.998;2023-12-14T03:12:52;63.55;;;31.10;;
35084;SDS011;21267;51.032;6.998;2023-12-14T03:15:28;56.92;;;30.50;;
35084;SDS011;21267;51.032;6.998;2023-12-14T03:17:56;61.30;;;29.83;;
35084;SDS011;21267;51.032;6.998;2023-12-14T03:20:23;54.33;;;28.40;;
35084;SDS011;21267;51.032;6.998;2023-12-14T03:22:51;55.22;;;28.92;;
35084;SDS011;21267;51.032;6.998;2023-12-14T03:25:31;43.75;;;24.95;;
35084;SDS011;21267;51.032;6.998;2023-12-14T03:28:01;43.38;;;25.80;;
35084;SDS011;21267;51.032;6.998;2023-12-14T03:30:44;51.00;;;28.02;;
35084;SDS011;21267;51.032;6.998;2023-12-14T03:33:11;51.67;;;29.23;;
35084;SDS011;21267;51.032;6.998;2023-12-14T03:35:56;44.58;;;27.15;;
35084;SDS011;21267;51.032;6.998;2023-12-14T03:38:22;43.00;;;25.90;;
35084;SDS011;21267;51.032;6.998;2023-12-14T03:41:03;45.33;;;28.10;;
35084;SDS011;21267;51.032;6.998;2023-12-14T03:43:30;50.13;;;29.37;;
35084;SDS011;21267;51.032;6.998;2023-12-14T03:45:58;48.40;;;28.15;;
35084;SDS011;21267;51.032;6.998;2023-12-14T03:48:26;44.47;;;28.75;;
35084;SDS011;21267;51.032;6.998;2023-12-14T03:50:53;39.83;;;26.67;;
35084;SDS011;21267;51.032;6.998;2023-12-14T03:53:20;46.27;;;27.30;;
35084;SDS011;21267;51.032;6.998;2023-12-14T03:55:49;39.63;;;24.55;;
35084;SDS011;21267;51.032;6.998;2023-12-14T03:58:24;34.45;;;23.08;;
35084;SDS011;21267;51.032;6.998;2023-12-14T04:00:55;34.08;;;22.90;;
35084;SDS011;21267;51.032;6.998;2023-12-14T04:03:23;33.90;;;22.10;;
35084;SDS011;21267;51.032;6.998;2023-12-14T04:05:57;30.95;;;21.85;;
35084;SDS011;21267;51.032;6.998;2023-12-14T04:08:30;28.67;;;20.52;;
35084;SDS011;21267;51.032;6.998;2023-12-14T04:10:57;27.92;;;20.23;;
35084;SDS011;21267;51.032;6.998;2023-12-14T04:13:29;29.63;;;21.08;;
35084;SDS011;21267;51.032;6.998;2023-12-14T04:15:57;26.30;;;19.05;;
35084;SDS011;21267;51.032;6.998;2023-12-14T04:18:27;27.42;;;20.77;;
35084;SDS011;21267;51.032;6.998;2023-12-14T04:20:56;33.25;;;21.88;;
35084;SDS011;21267;51.032;6.998;2023-12-14T04:23:29;32.22;;;24.08;;
35084;SDS011;21267;51.032;6.998;2023-12-14T04:25:57;36.97;;;25.10;;
35084;SDS011;21267;51.032;6.998;2023-12-14T04:28:26;39.17;;;25.27;;
35084;SDS011;21267;51.032;6.998;2023-12-14T04:30:59;37.05;;;25.60;;
35084;SDS011;21267;51.032;6.998;2023-12-14T04:33:32;41.88;;;26.77;;
35084;SDS011;21267;51.032;6.998;2023-12-14T04:36:05;41.67;;;25.73;;
35084;SDS011;21267;51.032;6.998;2023-12-14T04:38:43;40.45;;;25.67;;
35084;SDS011;21267;51.032;6.998;2023-12-14T04:41:19;37.97;;;25.65;;
35084;SDS011;21267;51.032;6.998;2023-12-14T04:43:47;45.25;;;28.73;;
35084;SDS011;21267;51.032;6.998;2023-12-14T04:46:20;52.25;;;29.63;;
35084;SDS011;21267;51.032;6.998;2023-12-14T04:49:00;56.40;;;31.75;;
35084;SDS011;21267;51.032;6.998;2023-12-14T04:51:36;55.00;;;32.20;;
35084;SDS011;21267;51.032;6.998;2023-12-14T04:54:04;60.55;;;33.08;;
35084;SDS011;21267;51.032;6.998;2023-12-14T04:56:38;59.42;;;32.97;;
35084;SDS011;21267;51.032;6.998;2023-12-14T04:59:11;58.08;;;31.73;;
35084;SDS011;21267;51.032;6.998;2023-12-14T05:01:43;57.08;;;29.70;;
35084;SDS011;21267;51.032;6.998;2023-12-14T05:04:16;56.33;;;32.00;;
35084;SDS011;21267;51.032;6.998;2023-12-14T05:07:03;62.83;;;33.40;;
35084;SDS011;21267;51.032;6.998;2023-12-14T05:09:56;62.15;;;31.65;;
35084;SDS011;21267;51.032;6.998;2023-12-14T05:12:34;59.08;;;32.67;;
35084;SDS011;21267;51.032;6.998;2023-12-14T05:15:05;58.97;;;32.00;;
35084;SDS011;21267;51.032;6.998;2023-12-14T05:17:40;58.33;;;32.80;;
35084;SDS011;21267;51.032;6.998;2023-12-14T05:20:17;62.10;;;33.72;;
35084;SDS011;21267;51.032;6.998;2023-12-14T05:22:47;60.58;;;33.78;;
35084;SDS011;21267;51.032;6.998;2023-12-14T05:25:19;67.55;;;34.63;;
35084;SDS011;21267;51.032;6.998;2023-12-14T05:30:18;70.00;;;35.45;;
35084;SDS011;21267;51.032;6.998;2023-12-14T05:35:14;69.53;;;36.05;;
35084;SDS011;21267;51.032;6.998;2023-12-14T05:37:44;68.32;;;34.60;;
35084;SDS011;21267;51.032;6.998;2023-12-14T05:40:13;76.88;;;36.78;;
35084;SDS011;21267;51.032;6.998;2023-12-14T05:42:45;66.43;;;34.63;;
35084;SDS011;21267;51.032;6.998;2023-12-14T05:45:13;65.45;;;35.05;;
35084;SDS011;21267;51.032;6.998;2023-12-14T05:47:41;68.38;;;35.80;;
35084;SDS011;21267;51.032;6.998;2023-12-14T05:50:21;73.18;;;37.35;;
35084;SDS011;21267;51.032;6.998;2023-12-14T05:52:49;72.63;;;35.08;;
35084;SDS011;21267;51.032;6.998;2023-12-14T05:55:17;71.40;;;35.38;;
35084;SDS011;21267;51.032;6.998;2023-12-14T05:57:57;74.70;;;37.60;;
35084;SDS011;21267;51.032;6.998;2023-12-14T06:00:36;69.45;;;35.92;;
35084;SDS011;21267;51.032;6.998;2023-12-14T06:03:08;78.95;;;39.55;;
35084;SDS011;21267;51.032;6.998;2023-12-14T06:05:53;76.95;;;38.10;;
35084;SDS011;21267;51.032;6.998;2023-12-14T06:08:53;85.35;;;38.22;;
35084;SDS011;21267;51.032;6.998;2023-12-14T06:11:56;83.45;;;39.08;;
35084;SDS011;21267;51.032;6.998;2023-12-14T06:14:39;81.85;;;37.10;;
35084;SDS011;21267;51.032;6.998;2023-12-14T06:17:31;77.60;;;36.78;;
35084;SDS011;21267;51.032;6.998;2023-12-14T06:20:20;79.60;;;35.90;;
35084;SDS011;21267;51.032;6.998;2023-12-14T06:22:53;72.18;;;32.95;;
35084;SDS011;21267;51.032;6.998;2023-12-14T06:25:33;67.68;;;32.05;;
35084;SDS011;21267;51.032;6.998;2023-12-14T06:28:14;69.70;;;33.67;;
35084;SDS011;21267;51.032;6.998;2023-12-14T06:30:51;68.40;;;34.25;;
35084;SDS011;21267;51.032;6.998;2023-12-14T06:33:30;59.75;;;30.08;;
35084;SDS011;21267;51.032;6.998;2023-12-14T06:36:33;62.03;;;29.90;;
35084;SDS011;21267;51.032;6.998;2023-12-14T06:39:15;54.75;;;28.65;;
35084;SDS011;21267;51.032;6.998;2023-12-14T06:41:46;52.70;;;27.00;;
35084;SDS011;21267;51.032;6.998;2023-12-14T06:44:18;47.00;;;25.13;;
35084;SDS011;21267;51.032;6.998;2023-12-14T06:46:48;50.85;;;26.83;;
35084;SDS011;21267;51.032;6.998;2023-12-14T06:49:21;53.53;;;26.35;;
35084;SDS011;21267;51.032;6.998;2023-12-14T06:51:50;48.90;;;25.35;;
35084;SDS011;21267;51.032;6.998;2023-12-14T06:54:30;52.30;;;26.58;;
35084;SDS011;21267;51.032;6.998;2023-12-14T06:57:10;42.67;;;24.15;;
35084;SDS011;21267;51.032;6.998;2023-12-14T06:59:40;45.17;;;26.48;;
35084;SDS011;21267;51.032;6.998;2023-12-14T07:02:12;46.10;;;25.58;;
35084;SDS011;21267;51.032;6.998;2023-12-14T07:04:40;39.00;;;21.58;;
35084;SDS011;21267;51.032;6.998;2023-12-14T07:07:27;40.78;;;24.52;;
35084;SDS011;21267;51.032;6.998;2023-12-14T07:09:55;38.00;;;23.45;;
35084;SDS011;21267;51.032;6.998;2023-12-14T07:12:36;42.90;;;24.98;;
35084;SDS011;21267;51.032;6.998;2023-12-14T07:15:06;39.70;;;24.63;;
35084;SDS011;21267;51.032;6.998;2023-12-14T07:17:48;45.70;;;25.33;;
35084;SDS011;21267;51.032;6.998;2023-12-14T07:20:15;39.73;;;23.97;;
35084;SDS011;21267;51.032;6.998;2023-12-14T07:22:56;38.08;;;23.65;;
35084;SDS011;21267;51.032;6.998;2023-12-14T07:25:31;43.28;;;24.50;;
35084;SDS011;21267;51.032;6.998;2023-12-14T07:28:03;43.38;;;25.40;;
35084;SDS011;21267;51.032;6.998;2023-12-14T07:33:36;45.58;;;26.73;;
35084;SDS011;21267;51.032;6.998;2023-12-14T07:36:03;46.53;;;27.30;;
35084;SDS011;21267;51.032;6.998;2023-12-14T07:38:32;44.80;;;25.48;;
35084;SDS011;21267;51.032;6.998;2023-12-14T07:40:58;44.50;;;25.83;;
35084;SDS011;21267;51.032;6.998;2023-12-14T07:43:26;44.75;;;26.65;;
35084;SDS011;21267;51.032;6.998;2023-12-14T07:45:52;47.05;;;24.98;;
35084;SDS011;21267;51.032;6.998;2023-12-14T07:48:19;45.22;;;23.67;;
35084;SDS011;21267;51.032;6.998;2023-12-14T07:50:46;32.60;;;17.63;;
35084;SDS011;21267;51.032;6.998;2023-12-14T07:53:15;43.72;;;20.48;;
35084;SDS011;21267;51.032;6.998;2023-12-14T07:55:42;44.47;;;22.13;;
35084;SDS011;21267;51.032;6.998;2023-12-14T07:58:10;46.92;;;24.60;;
35084;SDS011;21267;51.032;6.998;2023-12-14T08:00:37;48.40;;;24.47;;
35084;SDS011;21267;51.032;6.998;2023-12-14T08:03:04;52.53;;;26.48;;
35084;SDS011;21267;51.032;6.998;2023-12-14T08:05:32;55.50;;;26.83;;
35084;SDS011;21267;51.032;6.998;2023-12-14T08:07:59;60.63;;;28.30;;
35084;SDS011;21267;51.032;6.998;2023-12-14T08:10:26;43.93;;;22.47;;
35084;SDS011;21267;51.032;6.998;2023-12-14T08:12:55;64.10;;;30.20;;
35084;SDS011;21267;51.032;6.998;2023-12-14T08:15:22;61.97;;;29.40;;
35084;SDS011;21267;51.032;6.998;2023-12-14T08:17:50;59.47;;;29.45;;
35084;SDS011;21267;51.032;6.998;2023-12-14T08:20:17;62.80;;;31.35;;
35084;SDS011;21267;51.032;6.998;2023-12-14T08:22:46;62.75;;;31.77;;
35084;SDS011;21267;51.032;6.998;2023-12-14T08:25:14;63.90;;;31.83;;
35084;SDS011;21267;51.032;6.998;2023-12-14T08:27:42;66.05;;;32.88;;
35084;SDS011;21267;51.032;6.998;2023-12-14T08:30:11;60.70;;;31.10;;
35084;SDS011;21267;51.032;6.998;2023-12-14T08:32:38;58.53;;;30.15;;
35084;SDS011;21267;51.032;6.998;2023-12-14T08:35:06;64.28;;;33.33;;
35084;SDS011;21267;51.032;6.998;2023-12-14T08:37:33;67.10;;;31.85;;
35084;SDS011;21267;51.032;6.998;2023-12-14T08:40:02;65.10;;;32.63;;
35084;SDS011;21267;51.032;6.998;2023-12-14T08:42:30;76.07;;;35.33;;
35084;SDS011;21267;51.032;6.998;2023-12-14T08:45:01;68.97;;;33.53;;
35084;SDS011;21267;51.032;6.998;2023-12-14T08:47:28;53.47;;;25.63;;
35084;SDS011;21267;51.032;6.998;2023-12-14T08:49:55;69.27;;;35.17;;
35084;SDS011;21267;51.032;6.998;2023-12-14T08:52:22;71.37;;;35.63;;
35084;SDS011;21267;51.032;6.998;2023-12-14T08:54:49;68.50;;;34.05;;
35084;SDS011;21267;51.032;6.998;2023-12-14T08:57:15;68.68;;;32.75;;
35084;SDS011;21267;51.032;6.998;2023-12-14T08:59:42;68.43;;;32.58;;
35084;SDS011;21267;51.032;6.998;2023-12-14T09:02:10;70.88;;;33.40;;
35084;SDS011;21267;51.032;6.998;2023-12-14T09:04:37;65.83;;;32.37;;
35084;SDS011;21267;51.032;6.998;2023-12-14T09:07:04;66.15;;;32.25;;
35084;SDS011;21267;51.032;6.998;2023-12-14T09:09:31;63.95;;;30.83;;
35084;SDS011;21267;51.032;6.998;2023-12-14T09:11:59;59.65;;;29.40;;
35084;SDS011;21267;51.032;6.998;2023-12-14T09:14:26;59.88;;;28.20;;
35084;SDS011;21267;51.032;6.998;2023-12-14T09:16:53;62.53;;;29.30;;
35084;SDS011;21267;51.032;6.998;2023-12-14T09:19:20;57.80;;;26.00;;
35084;SDS011;21267;51.032;6.998;2023-12-14T09:21:47;64.22;;;27.92;;
35084;SDS011;21267;51.032;6.998;2023-12-14T09:24:14;68.53;;;31.03;;
35084;SDS011;21267;51.032;6.998;2023-12-14T09:26:42;69.00;;;32.70;;
35084;SDS011;21267;51.032;6.998;2023-12-14T09:29:09;73.28;;;34.25;;
35084;SDS011;21267;51.032;6.998;2023-12-14T09:31:36;78.43;;;33.63;;
35084;SDS011;21267;51.032;6.998;2023-12-14T09:34:03;70.47;;;32.20;;
35084;SDS011;21267;51.032;6.998;2023-12-14T09:36:31;68.38;;;32.33;;
35084;SDS011;21267;51.032;6.998;2023-12-14T09:38:58;70.25;;;33.47;;
35084;SDS011;21267;51.032;6.998;2023-12-14T09:41:25;78.28;;;36.17;;
35084;SDS011;21267;51.032;6.998;2023-12-14T09:43:52;69.93;;;33.22;;
35084;SDS011;21267;51.032;6.998;2023-12-14T09:46:19;68.85;;;33.60;;
35084;SDS011;21267;51.032;6.998;2023-12-14T09:48:49;67.13;;;33.00;;
35084;SDS011;21267;51.032;6.998;2023-12-14T09:51:17;80.75;;;35.95;;
35084;SDS011;21267;51.032;6.998;2023-12-14T09:53:44;77.18;;;36.03;;
35084;SDS011;21267;51.032;6.998;2023-12-14T09:56:11;73.50;;;35.67;;
35084;SDS011;21267;51.032;6.998;2023-12-14T09:58:38;83.97;;;37.80;;
35084;SDS011;21267;51.032;6.998;2023-12-14T10:01:20;86.20;;;38.08;;
35084;SDS011;21267;51.032;6.998;2023-12-14T10:04:06;87.40;;;38.78;;
35084;SDS011;21267;51.032;6.998;2023-12-14T10:06:45;91.00;;;38.03;;
35084;SDS011;21267;51.032;6.998;2023-12-14T10:09:14;85.63;;;37.17;;
35084;SDS011;21267;51.032;6.998;2023-12-14T10:11:45;94.68;;;40.90;;
35084;SDS011;21267;51.032;6.998;2023-12-14T10:14:19;91.82;;;40.38;;
35084;SDS011;21267;51.032;6.998;2023-12-14T10:16:51;95.53;;;41.58;;
35084;SDS011;21267;51.032;6.998;2023-12-14T10:19:28;98.05;;;41.47;;
35084;SDS011;21267;51.032;6.998;2023-12-14T10:21:56;95.95;;;41.20;;
35084;SDS011;21267;51.032;6.998;2023-12-14T10:24:23;101.00;;;42.47;;
35084;SDS011;21267;51.032;6.998;2023-12-14T10:26:50;108.05;;;45.67;;
35084;SDS011;21267;51.032;6.998;2023-12-14T10:29:18;99.60;;;44.97;;
35084;SDS011;21267;51.032;6.998;2023-12-14T10:31:45;106.22;;;45.10;;
35084;SDS011;21267;51.032;6.998;2023-12-14T10:34:12;101.82;;;45.85;;
35084;SDS011;21267;51.032;6.998;2023-12-14T10:36:40;108.47;;;46.38;;
35084;SDS011;21267;51.032;6.998;2023-12-14T10:39:08;107.82;;;46.63;;
35084;SDS011;21267;51.032;6.998;2023-12-14T10:41:43;103.13;;;47.75;;
35084;SDS011;21267;51.032;6.998;2023-12-14T10:44:25;106.95;;;46.38;;
35084;SDS011;21267;51.032;6.998;2023-12-14T10:47:13;93.43;;;46.65;;
35084;SDS011;21267;51.032;6.998;2023-12-14T10:49:42;106.35;;;49.05;;
35084;SDS011;21267;51.032;6.998;2023-12-14T10:52:12;95.30;;;46.13;;
35084;SDS011;21267;51.032;6.998;2023-12-14T10:54:39;105.40;;;49.10;;
35084;SDS011;21267;51.032;6.998;2023-12-14T10:57:07;100.30;;;47.15;;
35084;SDS011;21267;51.032;6.998;2023-12-14T10:59:35;89.95;;;43.22;;
35084;SDS011;21267;51.032;6.998;2023-12-14T11:02:06;88.30;;;43.15;;
35084;SDS011;21267;51.032;6.998;2023-12-14T11:04:56;92.32;;;44.72;;
35084;SDS011;21267;51.032;6.998;2023-12-14T11:10:19;80.70;;;41.78;;
35084;SDS011;21267;51.032;6.998;2023-12-14T11:12:50;82.63;;;41.53;;
35084;SDS011;21267;51.032;6.998;2023-12-14T11:15:19;73.45;;;38.60;;
35084;SDS011;21267;51.032;6.998;2023-12-14T11:23:12;60.80;;;33.03;;
35084;SDS011;21267;51.032;6.998;2023-12-14T11:25:40;59.28;;;32.45;;
35084;SDS011;21267;51.032;6.998;2023-12-14T11:28:12;57.05;;;33.25;;
35084;SDS011;21267;51.032;6.998;2023-12-14T11:30:42;62.45;;;34.70;;
35084;SDS011;21267;51.032;6.998;2023-12-14T11:33:21;60.35;;;32.88;;
35084;SDS011;21267;51.032;6.998;2023-12-14T11:35:52;67.82;;;34.95;;
35084;SDS011;21267;51.032;6.998;2023-12-14T11:38:20;68.53;;;35.42;;
35084;SDS011;21267;51.032;6.998;2023-12-14T11:40:48;64.78;;;35.65;;
35084;SDS011;21267;51.032;6.998;2023-12-14T11:43:16;71.40;;;39.92;;
35084;SDS011;21267;51.032;6.998;2023-12-14T11:45:47;74.85;;;41.25;;
35084;SDS011;21267;51.032;6.998;2023-12-14T11:48:15;85.90;;;46.22;;
35084;SDS011;21267;51.032;6.998;2023-12-14T11:50:43;73.80;;;40.38;;
35084;SDS011;21267;51.032;6.998;2023-12-14T11:53:11;71.03;;;37.45;;
35084;SDS011;21267;51.032;6.998;2023-12-14T11:55:44;71.78;;;39.65;;
35084;SDS011;21267;51.032;6.998;2023-12-14T11:58:12;71.30;;;39.72;;
35084;SDS011;21267;51.032;6.998;2023-12-14T12:00:43;64.68;;;35.75;;
35084;SDS011;21267;51.032;6.998;2023-12-14T12:08:25;64.95;;;36.42;;
35084;SDS011;21267;51.032;6.998;2023-12-14T12:10:52;70.33;;;36.83;;
35084;SDS011;21267;51.032;6.998;2023-12-14T12:13:19;70.70;;;38.05;;
35084;SDS011;21267;51.032;6.998;2023-12-14T12:15:47;66.78;;;35.92;;
35084;SDS011;21267;51.032;6.998;2023-12-14T12:18:15;67.50;;;35.75;;
35084;SDS011;21267;51.032;6.998;2023-12-14T12:20:44;67.20;;;35.95;;
35084;SDS011;21267;51.032;6.998;2023-12-14T12:23:11;60.83;;;35.97;;
35084;SDS011;21267;51.032;6.998;2023-12-14T12:25:38;69.97;;;37.27;;
35084;SDS011;21267;51.032;6.998;2023-12-14T12:28:04;63.92;;;33.95;;
35084;SDS011;21267;51.032;6.998;2023-12-14T12:30:32;66.20;;;35.10;;
35084;SDS011;21267;51.032;6.998;2023-12-14T12:33:03;62.10;;;33.63;;
35084;SDS011;21267;51.032;6.998;2023-12-14T12:35:30;67.13;;;34.60;;
35084;SDS011;21267;51.032;6.998;2023-12-14T12:37:59;57.55;;;31.02;;
35084;SDS011;21267;51.032;6.998;2023-12-14T12:40:26;56.83;;;30.95;;
35084;SDS011;21267;51.032;6.998;2023-12-14T12:42:53;57.90;;;32.23;;
35084;SDS011;21267;51.032;6.998;2023-12-14T12:45:20;56.83;;;32.17;;
35084;SDS011;21267;51.032;6.998;2023-12-14T12:47:55;62.03;;;31.60;;
35084;SDS011;21267;51.032;6.998;2023-12-14T12:50:22;57.13;;;31.20;;
35084;SDS011;21267;51.032;6.998;2023-12-14T12:52:49;58.80;;;32.03;;
35084;SDS011;21267;51.032;6.998;2023-12-14T12:55:17;58.42;;;31.33;;
35084;SDS011;21267;51.032;6.998;2023-12-14T12:57:44;57.45;;;32.85;;
35084;SDS011;21267;51.032;6.998;2023-12-14T13:00:12;48.70;;;27.92;;
35084;SDS011;21267;51.032;6.998;2023-12-14T13:02:46;51.88;;;29.63;;
35084;SDS011;21267;51.032;6.998;2023-12-14T13:05:24;47.53;;;28.52;;
35084;SDS011;21267;51.032;6.998;2023-12-14T13:08:03;53.55;;;29.67;;
35084;SDS011;21267;51.032;6.998;2023-12-14T13:10:35;51.15;;;28.67;;
35084;SDS011;21267;51.032;6.998;2023-12-14T13:13:23;57.45;;;31.25;;
35084;SDS011;21267;51.032;6.998;2023-12-14T13:15:57;46.38;;;25.67;;
35084;SDS011;21267;51.032;6.998;2023-12-14T13:18:27;37.80;;;23.83;;
35084;SDS011;21267;51.032;6.998;2023-12-14T13:20:58;35.58;;;21.27;;
35084;SDS011;21267;51.032;6.998;2023-12-14T13:23:29;31.33;;;19.50;;
35084;SDS011;21267;51.032;6.998;2023-12-14T13:26:01;32.83;;;19.80;;
35084;SDS011;21267;51.032;6.998;2023-12-14T13:28:35;28.70;;;18.52;;
35084;SDS011;21267;51.032;6.998;2023-12-14T13:31:09;30.42;;;18.90;;
35084;SDS011;21267;51.032;6.998;2023-12-14T13:33:45;34.53;;;20.35;;
35084;SDS011;21267;51.032;6.998;2023-12-14T13:36:16;29.25;;;17.23;;
35084;SDS011;21267;51.032;6.998;2023-12-14T13:38:47;26.55;;;17.63;;
35084;SDS011;21267;51.032;6.998;2023-12-14T13:43:42;26.33;;;17.58;;
35084;SDS011;21267;51.032;6.998;2023-12-14T13:46:15;23.73;;;16.85;;
35084;SDS011;21267;51.032;6.998;2023-12-14T13:48:50;26.17;;;17.27;;
35084;SDS011;21267;51.032;6.998;2023-12-14T13:51:22;24.42;;;15.30;;
35084;SDS011;21267;51.032;6.998;2023-12-14T13:53:52;22.80;;;14.30;;
35084;SDS011;21267;51.032;6.998;2023-12-14T13:56:25;23.42;;;13.88;;
35084;SDS011;21267;51.032;6.998;2023-12-14T13:59:03;21.45;;;13.70;;
35084;SDS011;21267;51.032;6.998;2023-12-14T14:01:35;19.73;;;13.38;;
35084;SDS011;21267;51.032;6.998;2023-12-14T14:04:05;21.15;;;13.27;;
35084;SDS011;21267;51.032;6.998;2023-12-14T14:06:32;20.10;;;14.40;;
35084;SDS011;21267;51.032;6.998;2023-12-14T14:08:59;21.80;;;13.63;;
35084;SDS011;21267;51.032;6.998;2023-12-14T14:11:26;18.98;;;12.80;;
35084;SDS011;21267;51.032;6.998;2023-12-14T14:13:53;18.97;;;12.77;;
35084;SDS011;21267;51.032;6.998;2023-12-14T14:16:20;19.83;;;12.15;;
35084;SDS011;21267;51.032;6.998;2023-12-14T14:18:50;19.35;;;12.45;;
35084;SDS011;21267;51.032;6.998;2023-12-14T14:21:17;19.77;;;13.27;;
35084;SDS011;21267;51.032;6.998;2023-12-14T14:23:44;17.63;;;12.47;;
35084;SDS011;21267;51.032;6.998;2023-12-14T14:26:11;18.98;;;12.75;;
35084;SDS011;21267;51.032;6.998;2023-12-14T14:28:38;34.03;;;26.05;;
35084;SDS011;21267;51.032;6.998;2023-12-14T14:31:05;19.73;;;10.53;;
35084;SDS011;21267;51.032;6.998;2023-12-14T14:33:32;18.58;;;13.50;;
35084;SDS011;21267;51.032;6.998;2023-12-14T14:35:59;20.30;;;12.97;;
35084;SDS011;21267;51.032;6.998;2023-12-14T14:38:31;19.73;;;14.43;;
35084;SDS011;21267;51.032;6.998;2023-12-14T14:40:59;22.93;;;12.43;;
35084;SDS011;21267;51.032;6.998;2023-12-14T14:43:25;22.27;;;13.63;;
35084;SDS011;21267;51.032;6.998;2023-12-14T14:45:52;23.48;;;13.00;;
35084;SDS011;21267;51.032;6.998;2023-12-14T14:48:19;17.88;;;12.07;;
35084;SDS011;21267;51.032;6.998;2023-12-14T14:50:46;18.35;;;11.63;;
35084;SDS011;21267;51.032;6.998;2023-12-14T14:53:13;18.47;;;11.60;;
35084;SDS011;21267;51.032;6.998;2023-12-14T14:55:40;19.03;;;12.30;;
35084;SDS011;21267;51.032;6.998;2023-12-14T14:58:07;25.73;;;12.90;;
35084;SDS011;21267;51.032;6.998;2023-12-14T15:00:34;19.40;;;13.30;;
35084;SDS011;21267;51.032;6.998;2023-12-14T15:03:05;23.77;;;13.00;;
35084;SDS011;21267;51.032;6.998;2023-12-14T15:05:35;20.98;;;13.65;;
35084;SDS011;21267;51.032;6.998;2023-12-14T15:08:03;19.58;;;13.25;;
35084;SDS011;21267;51.032;6.998;2023-12-14T15:10:36;21.15;;;13.07;;
35084;SDS011;21267;51.032;6.998;2023-12-14T15:13:04;23.95;;;12.90;;
35084;SDS011;21267;51.032;6.998;2023-12-14T15:15:31;20.50;;;12.55;;